sensor_id;sensor_type;location;lat;lon;timestamp;P1;durP1;ratioP1;P2;durP2;ratioP2
5460;SDS011;2753;49.196;8.286;2023-04-25T00:01:05;3.80;;;3.50;;
5460;SDS011;2753;49.196;8.286;2023-04-25T00:03:31;4.07;;;3.47;;
5460;SDS011;2753;49.196;8.286;2023-04-25T00:05:58;3.50;;;3.03;;
5460;SDS011;2753;49.196;8.286;2023-04-25T00:08:28;3.70;;;3.40;;
5460;SDS011;2753;49.196;8.286;2023-04-25T00:10:54;4.67;;;4.10;;
5460;SDS011;2753;49.196;8.286;2023-04-25T00:13:20;4.00;;;3.70;;
5460;SDS011;2753;49.196;8.286;2023-04-25T00:15:46;7.67;;;5.00;;
5460;SDS011;2753;49.196;8.286;2023-04-25T00:18:13;4.47;;;4.13;;
5460;SDS011;2753;49.196;8.286;2023-04-25T00:20:39;11.53;;;3.90;;
5460;SDS011;2753;49.196;8.286;2023-04-25T00:23:05;4.07;;;3.77;;
5460;SDS011;2753;49.196;8.286;2023-04-25T00:25:31;4.00;;;3.60;;
5460;SDS011;2753;49.196;8.286;2023-04-25T00:27:56;3.70;;;3.30;;
5460;SDS011;2753;49.196;8.286;2023-04-25T00:30:22;3.57;;;3.23;;
5460;SDS011;2753;49.196;8.286;2023-04-25T00:32:48;10.20;;;3.50;;
5460;SDS011;2753;49.196;8.286;2023-04-25T00:35:14;4.83;;;3.33;;
5460;SDS011;2753;49.196;8.286;2023-04-25T00:37:39;3.63;;;3.27;;
5460;SDS011;2753;49.196;8.286;2023-04-25T00:40:06;5.00;;;4.03;;
5460;SDS011;2753;49.196;8.286;2023-04-25T00:42:32;3.80;;;3.50;;
5460;SDS011;2753;49.196;8.286;2023-04-25T00:44:59;4.13;;;3.40;;
5460;SDS011;2753;49.196;8.286;2023-04-25T00:47:26;3.80;;;3.50;;
5460;SDS011;2753;49.196;8.286;2023-04-25T00:49:53;4.50;;;4.20;;
5460;SDS011;2753;49.196;8.286;2023-04-25T00:52:19;5.53;;;4.13;;
5460;SDS011;2753;49.196;8.286;2023-04-25T00:54:45;3.80;;;3.37;;
5460;SDS011;2753;49.196;8.286;2023-04-25T00:57:11;4.07;;;3.17;;
5460;SDS011;2753;49.196;8.286;2023-04-25T00:59:37;4.07;;;3.57;;
5460;SDS011;2753;49.196;8.286;2023-04-25T01:02:04;5.27;;;3.80;;
5460;SDS011;2753;49.196;8.286;2023-04-25T01:04:30;10.00;;;7.23;;
5460;SDS011;2753;49.196;8.286;2023-04-25T01:06:55;5.97;;;5.43;;
5460;SDS011;2753;49.196;8.286;2023-04-25T01:09:22;6.83;;;5.60;;
5460;SDS011;2753;49.196;8.286;2023-04-25T01:11:49;15.13;;;7.43;;
5460;SDS011;2753;49.196;8.286;2023-04-25T01:14:14;4.20;;;3.60;;
5460;SDS011;2753;49.196;8.286;2023-04-25T01:16:40;4.20;;;3.80;;
5460;SDS011;2753;49.196;8.286;2023-04-25T01:19:09;4.33;;;3.93;;
5460;SDS011;2753;49.196;8.286;2023-04-25T01:21:38;4.00;;;3.63;;
5460;SDS011;2753;49.196;8.286;2023-04-25T01:24:05;4.20;;;3.80;;
5460;SDS011;2753;49.196;8.286;2023-04-25T01:26:31;4.57;;;3.33;;
5460;SDS011;2753;49.196;8.286;2023-04-25T01:29:01;3.73;;;3.40;;
5460;SDS011;2753;49.196;8.286;2023-04-25T01:31:28;4.23;;;3.83;;
5460;SDS011;2753;49.196;8.286;2023-04-25T01:33:55;3.80;;;3.50;;
5460;SDS011;2753;49.196;8.286;2023-04-25T01:36:21;4.60;;;3.77;;
5460;SDS011;2753;49.196;8.286;2023-04-25T01:38:47;4.40;;;3.63;;
5460;SDS011;2753;49.196;8.286;2023-04-25T01:41:13;6.80;;;3.73;;
5460;SDS011;2753;49.196;8.286;2023-04-25T01:43:39;4.23;;;3.83;;
5460;SDS011;2753;49.196;8.286;2023-04-25T01:46:05;5.53;;;4.10;;
5460;SDS011;2753;49.196;8.286;2023-04-25T01:48:31;4.03;;;3.73;;
5460;SDS011;2753;49.196;8.286;2023-04-25T01:50:57;3.80;;;3.50;;
5460;SDS011;2753;49.196;8.286;2023-04-25T01:53:23;4.20;;;3.90;;
5460;SDS011;2753;49.196;8.286;2023-04-25T01:55:49;4.00;;;3.70;;
5460;SDS011;2753;49.196;8.286;2023-04-25T01:58:15;4.43;;;4.10;;
5460;SDS011;2753;49.196;8.286;2023-04-25T02:00:41;3.80;;;3.50;;
5460;SDS011;2753;49.196;8.286;2023-04-25T02:03:07;5.70;;;3.93;;
5460;SDS011;2753;49.196;8.286;2023-04-25T02:05:37;6.43;;;4.07;;
5460;SDS011;2753;49.196;8.286;2023-04-25T02:08:04;14.60;;;9.60;;
5460;SDS011;2753;49.196;8.286;2023-04-25T02:10:31;11.90;;;7.73;;
5460;SDS011;2753;49.196;8.286;2023-04-25T02:12:57;8.63;;;6.77;;
5460;SDS011;2753;49.196;8.286;2023-04-25T02:15:23;10.87;;;7.27;;
5460;SDS011;2753;49.196;8.286;2023-04-25T02:17:49;11.37;;;6.60;;
5460;SDS011;2753;49.196;8.286;2023-04-25T02:20:15;29.40;;;11.23;;
5460;SDS011;2753;49.196;8.286;2023-04-25T02:22:44;20.53;;;11.03;;
5460;SDS011;2753;49.196;8.286;2023-04-25T02:25:10;13.13;;;7.13;;
5460;SDS011;2753;49.196;8.286;2023-04-25T02:27:37;24.80;;;14.07;;
5460;SDS011;2753;49.196;8.286;2023-04-25T02:30:03;69.73;;;26.97;;
5460;SDS011;2753;49.196;8.286;2023-04-25T02:32:31;20.13;;;10.50;;
5460;SDS011;2753;49.196;8.286;2023-04-25T02:34:59;22.03;;;11.83;;
5460;SDS011;2753;49.196;8.286;2023-04-25T02:37:31;13.77;;;7.33;;
5460;SDS011;2753;49.196;8.286;2023-04-25T02:40:00;7.63;;;4.90;;
5460;SDS011;2753;49.196;8.286;2023-04-25T02:42:28;7.13;;;4.97;;
5460;SDS011;2753;49.196;8.286;2023-04-25T02:44:53;8.83;;;4.83;;
5460;SDS011;2753;49.196;8.286;2023-04-25T02:47:19;7.60;;;5.00;;
5460;SDS011;2753;49.196;8.286;2023-04-25T02:49:45;6.27;;;5.13;;
5460;SDS011;2753;49.196;8.286;2023-04-25T02:52:11;5.17;;;4.77;;
5460;SDS011;2753;49.196;8.286;2023-04-25T02:54:37;4.57;;;4.20;;
5460;SDS011;2753;49.196;8.286;2023-04-25T02:57:04;8.20;;;4.30;;
5460;SDS011;2753;49.196;8.286;2023-04-25T02:59:30;6.60;;;4.60;;
5460;SDS011;2753;49.196;8.286;2023-04-25T03:01:56;5.20;;;4.80;;
5460;SDS011;2753;49.196;8.286;2023-04-25T03:04:22;4.50;;;4.10;;
5460;SDS011;2753;49.196;8.286;2023-04-25T03:06:48;5.67;;;5.07;;
5460;SDS011;2753;49.196;8.286;2023-04-25T03:09:15;10.83;;;6.07;;
5460;SDS011;2753;49.196;8.286;2023-04-25T03:11:41;8.83;;;4.70;;
5460;SDS011;2753;49.196;8.286;2023-04-25T03:14:07;5.10;;;4.70;;
5460;SDS011;2753;49.196;8.286;2023-04-25T03:16:32;22.33;;;14.90;;
5460;SDS011;2753;49.196;8.286;2023-04-25T03:18:58;4.37;;;4.07;;
5460;SDS011;2753;49.196;8.286;2023-04-25T03:21:24;6.30;;;5.03;;
5460;SDS011;2753;49.196;8.286;2023-04-25T03:23:51;12.53;;;5.73;;
5460;SDS011;2753;49.196;8.286;2023-04-25T03:26:17;5.80;;;4.70;;
5460;SDS011;2753;49.196;8.286;2023-04-25T03:28:43;6.37;;;5.17;;
5460;SDS011;2753;49.196;8.286;2023-04-25T03:31:08;8.40;;;5.30;;
5460;SDS011;2753;49.196;8.286;2023-04-25T03:33:34;5.17;;;4.57;;
5460;SDS011;2753;49.196;8.286;2023-04-25T03:36:00;5.40;;;4.90;;
5460;SDS011;2753;49.196;8.286;2023-04-25T03:38:25;5.20;;;4.70;;
5460;SDS011;2753;49.196;8.286;2023-04-25T03:40:51;5.17;;;4.77;;
5460;SDS011;2753;49.196;8.286;2023-04-25T03:43:17;8.40;;;4.70;;
5460;SDS011;2753;49.196;8.286;2023-04-25T03:45:42;8.57;;;5.00;;
5460;SDS011;2753;49.196;8.286;2023-04-25T03:48:08;5.10;;;4.60;;
5460;SDS011;2753;49.196;8.286;2023-04-25T03:50:34;7.10;;;5.17;;
5460;SDS011;2753;49.196;8.286;2023-04-25T03:53:00;6.43;;;5.20;;
5460;SDS011;2753;49.196;8.286;2023-04-25T03:55:26;6.43;;;5.03;;
5460;SDS011;2753;49.196;8.286;2023-04-25T03:57:51;5.40;;;4.93;;
5460;SDS011;2753;49.196;8.286;2023-04-25T04:00:17;4.80;;;4.40;;
5460;SDS011;2753;49.196;8.286;2023-04-25T04:02:42;7.37;;;5.87;;
5460;SDS011;2753;49.196;8.286;2023-04-25T04:05:08;7.40;;;5.70;;
5460;SDS011;2753;49.196;8.286;2023-04-25T04:07:34;5.70;;;5.10;;
5460;SDS011;2753;49.196;8.286;2023-04-25T04:10:05;5.47;;;4.90;;
5460;SDS011;2753;49.196;8.286;2023-04-25T04:12:32;6.23;;;5.07;;
5460;SDS011;2753;49.196;8.286;2023-04-25T04:14:58;6.07;;;4.90;;
5460;SDS011;2753;49.196;8.286;2023-04-25T04:17:24;30.30;;;12.77;;
5460;SDS011;2753;49.196;8.286;2023-04-25T04:19:50;7.23;;;5.80;;
5460;SDS011;2753;49.196;8.286;2023-04-25T04:22:15;14.23;;;6.40;;
5460;SDS011;2753;49.196;8.286;2023-04-25T04:24:41;7.37;;;6.30;;
5460;SDS011;2753;49.196;8.286;2023-04-25T04:27:11;7.50;;;6.67;;
5460;SDS011;2753;49.196;8.286;2023-04-25T04:29:37;8.97;;;6.30;;
5460;SDS011;2753;49.196;8.286;2023-04-25T04:32:03;10.23;;;6.87;;
5460;SDS011;2753;49.196;8.286;2023-04-25T04:34:30;7.30;;;6.37;;
5460;SDS011;2753;49.196;8.286;2023-04-25T04:36:56;9.90;;;5.93;;
5460;SDS011;2753;49.196;8.286;2023-04-25T04:39:22;10.27;;;7.57;;
5460;SDS011;2753;49.196;8.286;2023-04-25T04:41:47;14.63;;;7.10;;
5460;SDS011;2753;49.196;8.286;2023-04-25T04:44:13;11.53;;;7.27;;
5460;SDS011;2753;49.196;8.286;2023-04-25T04:46:39;11.70;;;6.57;;
5460;SDS011;2753;49.196;8.286;2023-04-25T04:49:09;8.07;;;6.50;;
5460;SDS011;2753;49.196;8.286;2023-04-25T04:51:36;8.03;;;6.93;;
5460;SDS011;2753;49.196;8.286;2023-04-25T04:54:02;10.50;;;6.93;;
5460;SDS011;2753;49.196;8.286;2023-04-25T04:56:28;14.63;;;9.40;;
5460;SDS011;2753;49.196;8.286;2023-04-25T04:58:56;14.93;;;8.73;;
5460;SDS011;2753;49.196;8.286;2023-04-25T05:01:22;10.10;;;6.57;;
5460;SDS011;2753;49.196;8.286;2023-04-25T05:03:48;9.10;;;6.03;;
5460;SDS011;2753;49.196;8.286;2023-04-25T05:06:14;8.80;;;6.33;;
5460;SDS011;2753;49.196;8.286;2023-04-25T05:08:41;10.10;;;6.30;;
5460;SDS011;2753;49.196;8.286;2023-04-25T05:11:07;10.47;;;6.83;;
5460;SDS011;2753;49.196;8.286;2023-04-25T05:13:32;7.60;;;6.77;;
5460;SDS011;2753;49.196;8.286;2023-04-25T05:15:58;10.00;;;7.57;;
5460;SDS011;2753;49.196;8.286;2023-04-25T05:18:24;16.83;;;7.40;;
5460;SDS011;2753;49.196;8.286;2023-04-25T05:20:50;12.23;;;7.23;;
5460;SDS011;2753;49.196;8.286;2023-04-25T05:23:15;11.10;;;7.07;;
5460;SDS011;2753;49.196;8.286;2023-04-25T05:25:41;9.70;;;7.20;;
5460;SDS011;2753;49.196;8.286;2023-04-25T05:28:07;8.93;;;7.30;;
5460;SDS011;2753;49.196;8.286;2023-04-25T05:30:33;13.03;;;8.17;;
5460;SDS011;2753;49.196;8.286;2023-04-25T05:32:59;8.97;;;8.07;;
5460;SDS011;2753;49.196;8.286;2023-04-25T05:35:25;10.50;;;6.90;;
5460;SDS011;2753;49.196;8.286;2023-04-25T05:37:51;24.07;;;14.10;;
5460;SDS011;2753;49.196;8.286;2023-04-25T05:40:17;17.90;;;11.87;;
5460;SDS011;2753;49.196;8.286;2023-04-25T05:42:42;11.47;;;7.20;;
5460;SDS011;2753;49.196;8.286;2023-04-25T05:45:08;10.67;;;7.90;;
5460;SDS011;2753;49.196;8.286;2023-04-25T05:47:34;8.80;;;7.63;;
5460;SDS011;2753;49.196;8.286;2023-04-25T05:50:00;10.23;;;8.53;;
5460;SDS011;2753;49.196;8.286;2023-04-25T05:52:26;13.27;;;8.80;;
5460;SDS011;2753;49.196;8.286;2023-04-25T05:54:51;8.77;;;7.80;;
5460;SDS011;2753;49.196;8.286;2023-04-25T05:57:24;9.03;;;7.30;;
5460;SDS011;2753;49.196;8.286;2023-04-25T05:59:51;7.93;;;7.10;;
5460;SDS011;2753;49.196;8.286;2023-04-25T06:02:18;13.47;;;7.40;;
5460;SDS011;2753;49.196;8.286;2023-04-25T06:04:45;12.70;;;8.50;;
5460;SDS011;2753;49.196;8.286;2023-04-25T06:07:11;11.00;;;7.93;;
5460;SDS011;2753;49.196;8.286;2023-04-25T06:09:37;15.10;;;10.13;;
5460;SDS011;2753;49.196;8.286;2023-04-25T06:12:06;13.60;;;9.67;;
5460;SDS011;2753;49.196;8.286;2023-04-25T06:14:33;10.97;;;8.77;;
5460;SDS011;2753;49.196;8.286;2023-04-25T06:16:59;13.60;;;8.53;;
5460;SDS011;2753;49.196;8.286;2023-04-25T06:19:24;13.97;;;9.13;;
5460;SDS011;2753;49.196;8.286;2023-04-25T06:21:50;11.47;;;8.73;;
5460;SDS011;2753;49.196;8.286;2023-04-25T06:24:16;14.07;;;9.57;;
5460;SDS011;2753;49.196;8.286;2023-04-25T06:26:41;11.17;;;9.07;;
5460;SDS011;2753;49.196;8.286;2023-04-25T06:29:07;13.17;;;9.17;;
5460;SDS011;2753;49.196;8.286;2023-04-25T06:31:33;13.50;;;9.50;;
5460;SDS011;2753;49.196;8.286;2023-04-25T06:33:58;14.40;;;10.00;;
5460;SDS011;2753;49.196;8.286;2023-04-25T06:36:24;13.63;;;10.13;;
5460;SDS011;2753;49.196;8.286;2023-04-25T06:38:51;18.50;;;9.87;;
5460;SDS011;2753;49.196;8.286;2023-04-25T06:41:20;12.03;;;10.20;;
5460;SDS011;2753;49.196;8.286;2023-04-25T06:43:45;17.80;;;10.07;;
5460;SDS011;2753;49.196;8.286;2023-04-25T06:46:11;15.30;;;10.63;;
5460;SDS011;2753;49.196;8.286;2023-04-25T06:48:37;13.10;;;9.63;;
5460;SDS011;2753;49.196;8.286;2023-04-25T06:51:03;12.47;;;9.70;;
5460;SDS011;2753;49.196;8.286;2023-04-25T06:53:28;13.57;;;9.90;;
5460;SDS011;2753;49.196;8.286;2023-04-25T06:55:54;12.57;;;9.57;;
5460;SDS011;2753;49.196;8.286;2023-04-25T06:58:20;12.67;;;8.67;;
5460;SDS011;2753;49.196;8.286;2023-04-25T07:00:45;14.70;;;9.83;;
5460;SDS011;2753;49.196;8.286;2023-04-25T07:03:11;13.30;;;10.57;;
5460;SDS011;2753;49.196;8.286;2023-04-25T07:05:37;13.87;;;9.90;;
5460;SDS011;2753;49.196;8.286;2023-04-25T07:08:03;12.10;;;9.43;;
5460;SDS011;2753;49.196;8.286;2023-04-25T07:10:29;15.30;;;10.67;;
5460;SDS011;2753;49.196;8.286;2023-04-25T07:12:55;15.03;;;10.97;;
5460;SDS011;2753;49.196;8.286;2023-04-25T07:15:20;18.13;;;11.17;;
5460;SDS011;2753;49.196;8.286;2023-04-25T07:17:46;18.47;;;11.70;;
5460;SDS011;2753;49.196;8.286;2023-04-25T07:20:12;14.60;;;10.50;;
5460;SDS011;2753;49.196;8.286;2023-04-25T07:22:37;16.33;;;11.07;;
5460;SDS011;2753;49.196;8.286;2023-04-25T07:25:03;15.10;;;10.83;;
5460;SDS011;2753;49.196;8.286;2023-04-25T07:27:30;14.43;;;9.40;;
5460;SDS011;2753;49.196;8.286;2023-04-25T07:29:56;14.07;;;10.00;;
5460;SDS011;2753;49.196;8.286;2023-04-25T07:32:22;12.40;;;9.27;;
5460;SDS011;2753;49.196;8.286;2023-04-25T07:34:47;15.17;;;10.20;;
5460;SDS011;2753;49.196;8.286;2023-04-25T07:37:13;12.43;;;9.63;;
5460;SDS011;2753;49.196;8.286;2023-04-25T07:39:39;11.40;;;9.67;;
5460;SDS011;2753;49.196;8.286;2023-04-25T07:42:05;13.53;;;9.80;;
5460;SDS011;2753;49.196;8.286;2023-04-25T07:44:33;11.80;;;9.40;;
5460;SDS011;2753;49.196;8.286;2023-04-25T07:47:06;15.83;;;9.70;;
5460;SDS011;2753;49.196;8.286;2023-04-25T07:49:35;12.60;;;9.17;;
5460;SDS011;2753;49.196;8.286;2023-04-25T07:52:02;13.10;;;9.67;;
5460;SDS011;2753;49.196;8.286;2023-04-25T07:54:29;12.90;;;10.00;;
5460;SDS011;2753;49.196;8.286;2023-04-25T07:56:55;13.50;;;10.50;;
5460;SDS011;2753;49.196;8.286;2023-04-25T07:59:20;12.53;;;10.30;;
5460;SDS011;2753;49.196;8.286;2023-04-25T08:01:46;20.30;;;11.97;;
5460;SDS011;2753;49.196;8.286;2023-04-25T08:04:12;15.63;;;10.30;;
5460;SDS011;2753;49.196;8.286;2023-04-25T08:06:38;12.90;;;9.83;;
5460;SDS011;2753;49.196;8.286;2023-04-25T08:09:03;12.63;;;9.70;;
5460;SDS011;2753;49.196;8.286;2023-04-25T08:11:29;15.40;;;10.13;;
5460;SDS011;2753;49.196;8.286;2023-04-25T08:13:55;13.87;;;8.80;;
5460;SDS011;2753;49.196;8.286;2023-04-25T08:16:20;16.77;;;11.00;;
5460;SDS011;2753;49.196;8.286;2023-04-25T08:18:47;14.77;;;9.83;;
5460;SDS011;2753;49.196;8.286;2023-04-25T08:21:13;15.80;;;10.17;;
5460;SDS011;2753;49.196;8.286;2023-04-25T08:23:40;15.87;;;11.80;;
5460;SDS011;2753;49.196;8.286;2023-04-25T08:26:05;19.37;;;12.80;;
5460;SDS011;2753;49.196;8.286;2023-04-25T08:28:32;25.03;;;11.70;;
5460;SDS011;2753;49.196;8.286;2023-04-25T08:30:57;20.20;;;11.40;;
5460;SDS011;2753;49.196;8.286;2023-04-25T08:33:23;17.10;;;11.20;;
5460;SDS011;2753;49.196;8.286;2023-04-25T08:35:49;14.67;;;10.70;;
5460;SDS011;2753;49.196;8.286;2023-04-25T08:38:15;19.80;;;11.77;;
5460;SDS011;2753;49.196;8.286;2023-04-25T08:40:40;16.93;;;10.63;;
5460;SDS011;2753;49.196;8.286;2023-04-25T08:43:07;17.73;;;10.70;;
5460;SDS011;2753;49.196;8.286;2023-04-25T08:45:38;22.47;;;11.13;;
5460;SDS011;2753;49.196;8.286;2023-04-25T08:48:12;26.97;;;10.63;;
5460;SDS011;2753;49.196;8.286;2023-04-25T08:50:39;20.27;;;11.30;;
5460;SDS011;2753;49.196;8.286;2023-04-25T08:53:10;19.50;;;9.80;;
5460;SDS011;2753;49.196;8.286;2023-04-25T08:55:43;21.03;;;9.70;;
5460;SDS011;2753;49.196;8.286;2023-04-25T08:58:10;17.97;;;8.10;;
5460;SDS011;2753;49.196;8.286;2023-04-25T09:00:37;12.73;;;8.20;;
5460;SDS011;2753;49.196;8.286;2023-04-25T09:03:03;24.70;;;9.57;;
5460;SDS011;2753;49.196;8.286;2023-04-25T09:05:28;15.10;;;8.47;;
5460;SDS011;2753;49.196;8.286;2023-04-25T09:07:55;15.77;;;9.07;;
5460;SDS011;2753;49.196;8.286;2023-04-25T09:10:21;18.27;;;9.20;;
5460;SDS011;2753;49.196;8.286;2023-04-25T09:13:06;17.03;;;9.00;;
5460;SDS011;2753;49.196;8.286;2023-04-25T09:15:33;18.10;;;8.50;;
5460;SDS011;2753;49.196;8.286;2023-04-25T09:18:26;17.80;;;7.60;;
5460;SDS011;2753;49.196;8.286;2023-04-25T09:20:52;17.53;;;8.87;;
5460;SDS011;2753;49.196;8.286;2023-04-25T09:23:19;17.07;;;7.77;;
5460;SDS011;2753;49.196;8.286;2023-04-25T09:25:49;21.00;;;8.37;;
5460;SDS011;2753;49.196;8.286;2023-04-25T09:28:16;18.50;;;7.10;;
5460;SDS011;2753;49.196;8.286;2023-04-25T09:30:47;19.70;;;8.33;;
5460;SDS011;2753;49.196;8.286;2023-04-25T09:33:13;28.50;;;8.87;;
5460;SDS011;2753;49.196;8.286;2023-04-25T09:35:40;18.70;;;8.40;;
5460;SDS011;2753;49.196;8.286;2023-04-25T09:38:08;21.50;;;8.77;;
5460;SDS011;2753;49.196;8.286;2023-04-25T09:40:39;22.23;;;8.60;;
5460;SDS011;2753;49.196;8.286;2023-04-25T09:43:09;21.03;;;8.80;;
5460;SDS011;2753;49.196;8.286;2023-04-25T09:45:55;24.07;;;9.00;;
5460;SDS011;2753;49.196;8.286;2023-04-25T09:48:24;21.03;;;8.00;;
5460;SDS011;2753;49.196;8.286;2023-04-25T09:51:03;25.60;;;9.70;;
5460;SDS011;2753;49.196;8.286;2023-04-25T09:53:36;24.60;;;8.90;;
5460;SDS011;2753;49.196;8.286;2023-04-25T09:56:04;21.20;;;10.10;;
5460;SDS011;2753;49.196;8.286;2023-04-25T09:58:34;21.73;;;9.37;;
5460;SDS011;2753;49.196;8.286;2023-04-25T10:01:02;16.53;;;9.10;;
5460;SDS011;2753;49.196;8.286;2023-04-25T10:03:30;17.20;;;9.27;;
5460;SDS011;2753;49.196;8.286;2023-04-25T10:05:59;20.87;;;10.07;;
5460;SDS011;2753;49.196;8.286;2023-04-25T10:08:34;18.97;;;9.30;;
5460;SDS011;2753;49.196;8.286;2023-04-25T10:11:02;21.67;;;10.70;;
5460;SDS011;2753;49.196;8.286;2023-04-25T10:13:30;26.33;;;11.13;;
5460;SDS011;2753;49.196;8.286;2023-04-25T10:16:01;27.03;;;11.27;;
5460;SDS011;2753;49.196;8.286;2023-04-25T10:18:28;37.53;;;13.67;;
5460;SDS011;2753;49.196;8.286;2023-04-25T10:20:59;28.00;;;12.10;;
5460;SDS011;2753;49.196;8.286;2023-04-25T10:23:26;21.93;;;9.93;;
5460;SDS011;2753;49.196;8.286;2023-04-25T10:25:54;25.00;;;11.00;;
5460;SDS011;2753;49.196;8.286;2023-04-25T10:28:21;32.67;;;11.10;;
5460;SDS011;2753;49.196;8.286;2023-04-25T10:30:59;20.27;;;10.60;;
5460;SDS011;2753;49.196;8.286;2023-04-25T10:33:34;24.90;;;11.90;;
5460;SDS011;2753;49.196;8.286;2023-04-25T10:36:11;24.17;;;10.37;;
5460;SDS011;2753;49.196;8.286;2023-04-25T10:38:38;21.93;;;9.93;;
5460;SDS011;2753;49.196;8.286;2023-04-25T10:41:06;19.53;;;10.90;;
5460;SDS011;2753;49.196;8.286;2023-04-25T10:43:38;26.83;;;11.50;;
5460;SDS011;2753;49.196;8.286;2023-04-25T10:46:15;18.50;;;10.80;;
5460;SDS011;2753;49.196;8.286;2023-04-25T10:48:48;30.33;;;10.60;;
5460;SDS011;2753;49.196;8.286;2023-04-25T10:51:25;24.37;;;10.10;;
5460;SDS011;2753;49.196;8.286;2023-04-25T10:56:38;23.20;;;10.40;;
5460;SDS011;2753;49.196;8.286;2023-04-25T10:59:16;23.97;;;10.00;;
5460;SDS011;2753;49.196;8.286;2023-04-25T11:01:47;21.83;;;11.07;;
5460;SDS011;2753;49.196;8.286;2023-04-25T11:04:20;24.03;;;9.57;;
5460;SDS011;2753;49.196;8.286;2023-04-25T11:06:53;18.03;;;10.93;;
5460;SDS011;2753;49.196;8.286;2023-04-25T11:09:25;19.20;;;9.70;;
5460;SDS011;2753;49.196;8.286;2023-04-25T11:11:55;17.23;;;9.67;;
5460;SDS011;2753;49.196;8.286;2023-04-25T11:14:22;16.20;;;9.37;;
5460;SDS011;2753;49.196;8.286;2023-04-25T11:16:54;11.67;;;8.70;;
5460;SDS011;2753;49.196;8.286;2023-04-25T11:19:21;16.13;;;7.70;;
5460;SDS011;2753;49.196;8.286;2023-04-25T11:21:48;16.87;;;8.50;;
5460;SDS011;2753;49.196;8.286;2023-04-25T11:24:13;15.90;;;7.83;;
5460;SDS011;2753;49.196;8.286;2023-04-25T11:26:41;12.53;;;7.73;;
5460;SDS011;2753;49.196;8.286;2023-04-25T11:29:08;11.70;;;7.60;;
5460;SDS011;2753;49.196;8.286;2023-04-25T11:31:33;8.33;;;6.40;;
5460;SDS011;2753;49.196;8.286;2023-04-25T11:33:59;9.13;;;6.40;;
5460;SDS011;2753;49.196;8.286;2023-04-25T11:36:25;9.37;;;6.20;;
5460;SDS011;2753;49.196;8.286;2023-04-25T11:38:51;11.30;;;7.20;;
5460;SDS011;2753;49.196;8.286;2023-04-25T11:41:21;12.03;;;6.37;;
5460;SDS011;2753;49.196;8.286;2023-04-25T11:43:47;13.00;;;6.57;;
5460;SDS011;2753;49.196;8.286;2023-04-25T11:46:14;11.50;;;5.40;;
5460;SDS011;2753;49.196;8.286;2023-04-25T11:48:41;8.80;;;5.60;;
5460;SDS011;2753;49.196;8.286;2023-04-25T11:51:07;7.87;;;5.23;;
5460;SDS011;2753;49.196;8.286;2023-04-25T11:53:33;7.10;;;4.80;;
5460;SDS011;2753;49.196;8.286;2023-04-25T11:55:59;8.57;;;5.13;;
5460;SDS011;2753;49.196;8.286;2023-04-25T11:58:25;10.60;;;4.70;;
5460;SDS011;2753;49.196;8.286;2023-04-25T12:00:51;12.70;;;5.67;;
5460;SDS011;2753;49.196;8.286;2023-04-25T12:03:17;10.07;;;5.37;;
5460;SDS011;2753;49.196;8.286;2023-04-25T12:05:44;13.80;;;5.80;;
5460;SDS011;2753;49.196;8.286;2023-04-25T12:08:13;8.47;;;5.17;;
5460;SDS011;2753;49.196;8.286;2023-04-25T12:10:43;5.50;;;5.00;;
5460;SDS011;2753;49.196;8.286;2023-04-25T12:13:24;6.73;;;5.27;;
5460;SDS011;2753;49.196;8.286;2023-04-25T12:15:51;19.67;;;8.57;;
5460;SDS011;2753;49.196;8.286;2023-04-25T12:18:20;21.97;;;9.17;;
5460;SDS011;2753;49.196;8.286;2023-04-25T12:20:49;13.87;;;6.90;;
5460;SDS011;2753;49.196;8.286;2023-04-25T12:23:17;11.83;;;6.07;;
5460;SDS011;2753;49.196;8.286;2023-04-25T12:25:49;8.37;;;5.10;;
5460;SDS011;2753;49.196;8.286;2023-04-25T12:28:16;5.50;;;5.00;;
5460;SDS011;2753;49.196;8.286;2023-04-25T12:33:25;8.60;;;5.70;;
5460;SDS011;2753;49.196;8.286;2023-04-25T12:35:52;9.67;;;6.07;;
5460;SDS011;2753;49.196;8.286;2023-04-25T12:38:25;7.40;;;5.53;;
5460;SDS011;2753;49.196;8.286;2023-04-25T12:40:52;7.93;;;4.37;;
5460;SDS011;2753;49.196;8.286;2023-04-25T12:43:19;7.47;;;5.00;;
5460;SDS011;2753;49.196;8.286;2023-04-25T12:45:49;6.80;;;4.37;;
5460;SDS011;2753;49.196;8.286;2023-04-25T12:48:18;6.30;;;5.20;;
5460;SDS011;2753;49.196;8.286;2023-04-25T12:50:45;8.60;;;6.27;;
5460;SDS011;2753;49.196;8.286;2023-04-25T12:53:14;9.37;;;4.97;;
5460;SDS011;2753;49.196;8.286;2023-04-25T12:55:40;6.73;;;5.00;;
5460;SDS011;2753;49.196;8.286;2023-04-25T12:58:06;6.53;;;4.90;;
5460;SDS011;2753;49.196;8.286;2023-04-25T13:00:32;6.43;;;4.50;;
5460;SDS011;2753;49.196;8.286;2023-04-25T13:02:58;12.00;;;5.43;;
5460;SDS011;2753;49.196;8.286;2023-04-25T13:05:24;6.70;;;5.20;;
5460;SDS011;2753;49.196;8.286;2023-04-25T13:07:50;8.87;;;4.53;;
5460;SDS011;2753;49.196;8.286;2023-04-25T13:10:16;13.53;;;5.67;;
5460;SDS011;2753;49.196;8.286;2023-04-25T13:12:43;7.33;;;4.70;;
5460;SDS011;2753;49.196;8.286;2023-04-25T13:15:09;15.50;;;5.20;;
5460;SDS011;2753;49.196;8.286;2023-04-25T13:17:36;19.00;;;6.67;;
5460;SDS011;2753;49.196;8.286;2023-04-25T13:20:03;7.93;;;4.70;;
5460;SDS011;2753;49.196;8.286;2023-04-25T13:22:33;10.73;;;6.33;;
5460;SDS011;2753;49.196;8.286;2023-04-25T13:25:01;10.27;;;5.03;;
5460;SDS011;2753;49.196;8.286;2023-04-25T13:27:27;9.33;;;4.63;;
5460;SDS011;2753;49.196;8.286;2023-04-25T13:29:53;8.80;;;4.50;;
5460;SDS011;2753;49.196;8.286;2023-04-25T13:32:19;12.73;;;5.57;;
5460;SDS011;2753;49.196;8.286;2023-04-25T13:34:45;8.03;;;4.63;;
5460;SDS011;2753;49.196;8.286;2023-04-25T13:37:11;6.77;;;4.60;;
5460;SDS011;2753;49.196;8.286;2023-04-25T13:39:36;4.53;;;4.23;;
5460;SDS011;2753;49.196;8.286;2023-04-25T13:42:02;6.63;;;4.10;;
5460;SDS011;2753;49.196;8.286;2023-04-25T13:44:28;9.53;;;5.03;;
5460;SDS011;2753;49.196;8.286;2023-04-25T13:46:53;8.30;;;5.13;;
5460;SDS011;2753;49.196;8.286;2023-04-25T13:49:19;15.07;;;7.57;;
5460;SDS011;2753;49.196;8.286;2023-04-25T13:51:45;7.67;;;5.73;;
5460;SDS011;2753;49.196;8.286;2023-04-25T13:54:11;8.73;;;5.10;;
5460;SDS011;2753;49.196;8.286;2023-04-25T13:56:36;9.10;;;6.87;;
5460;SDS011;2753;49.196;8.286;2023-04-25T13:59:02;6.50;;;4.17;;
5460;SDS011;2753;49.196;8.286;2023-04-25T14:01:28;9.93;;;4.60;;
5460;SDS011;2753;49.196;8.286;2023-04-25T14:03:56;11.13;;;5.70;;
5460;SDS011;2753;49.196;8.286;2023-04-25T14:06:22;6.73;;;4.67;;
5460;SDS011;2753;49.196;8.286;2023-04-25T14:08:49;7.87;;;4.63;;
5460;SDS011;2753;49.196;8.286;2023-04-25T14:11:15;6.97;;;4.70;;
5460;SDS011;2753;49.196;8.286;2023-04-25T14:13:43;8.90;;;5.00;;
5460;SDS011;2753;49.196;8.286;2023-04-25T14:16:09;7.30;;;4.60;;
5460;SDS011;2753;49.196;8.286;2023-04-25T14:18:35;5.43;;;4.67;;
5460;SDS011;2753;49.196;8.286;2023-04-25T14:21:00;8.33;;;4.47;;
5460;SDS011;2753;49.196;8.286;2023-04-25T14:23:26;6.93;;;4.53;;
5460;SDS011;2753;49.196;8.286;2023-04-25T14:25:52;7.47;;;4.30;;
5460;SDS011;2753;49.196;8.286;2023-04-25T14:28:17;5.83;;;5.20;;
5460;SDS011;2753;49.196;8.286;2023-04-25T14:30:44;13.07;;;6.13;;
5460;SDS011;2753;49.196;8.286;2023-04-25T14:33:10;19.73;;;7.50;;
5460;SDS011;2753;49.196;8.286;2023-04-25T14:35:36;9.33;;;5.60;;
5460;SDS011;2753;49.196;8.286;2023-04-25T14:38:02;7.90;;;4.97;;
5460;SDS011;2753;49.196;8.286;2023-04-25T14:40:28;8.27;;;5.10;;
5460;SDS011;2753;49.196;8.286;2023-04-25T14:42:54;5.13;;;3.90;;
5460;SDS011;2753;49.196;8.286;2023-04-25T14:45:20;37.97;;;17.33;;
5460;SDS011;2753;49.196;8.286;2023-04-25T14:47:45;17.60;;;8.73;;
5460;SDS011;2753;49.196;8.286;2023-04-25T14:50:11;36.80;;;18.10;;
5460;SDS011;2753;49.196;8.286;2023-04-25T14:52:37;8.40;;;6.27;;
5460;SDS011;2753;49.196;8.286;2023-04-25T14:55:03;14.40;;;6.13;;
5460;SDS011;2753;49.196;8.286;2023-04-25T14:57:33;10.70;;;5.73;;
5460;SDS011;2753;49.196;8.286;2023-04-25T14:59:59;7.90;;;5.20;;
5460;SDS011;2753;49.196;8.286;2023-04-25T15:02:26;10.20;;;6.20;;
5460;SDS011;2753;49.196;8.286;2023-04-25T15:04:52;10.50;;;5.67;;
5460;SDS011;2753;49.196;8.286;2023-04-25T15:07:18;13.13;;;5.10;;
5460;SDS011;2753;49.196;8.286;2023-04-25T15:09:51;14.13;;;6.23;;